sensor_id;sensor_type;location;lat;lon;timestamp;noise_LAeq;noise_LA_min;noise_LA_max;noise_LA01;noise_LA95
71020;Laerm;58902;51.436;5.980;2023-09-07T00:00:09;41.42;31.40;53.34;;
71020;Laerm;58902;51.436;5.980;2023-09-07T00:00:20;32.61;29.92;35.23;;
71020;Laerm;58902;51.436;5.980;2023-09-07T00:00:31;30.38;28.72;32.27;;
71020;Laerm;58902;51.436;5.980;2023-09-07T00:00:41;29.63;28.51;30.82;;
71020;Laerm;58902;51.436;5.980;2023-09-07T00:00:52;29.68;28.01;34.22;;
71020;Laerm;58902;51.436;5.980;2023-09-07T00:01:05;29.68;28.48;32.39;;
71020;Laerm;58902;51.436;5.980;2023-09-07T00:01:16;29.75;28.07;33.08;;
71020;Laerm;58902;51.436;5.980;2023-09-07T00:01:26;29.90;28.72;32.47;;
71020;Laerm;58902;51.436;5.980;2023-09-07T00:01:37;30.06;28.74;33.73;;
71020;Laerm;58902;51.436;5.980;2023-09-07T00:01:47;29.76;28.33;30.84;;
71020;Laerm;58902;51.436;5.980;2023-09-07T00:01:58;30.25;28.88;33.21;;
71020;Laerm;58902;51.436;5.980;2023-09-07T00:02:08;33.63;29.70;42.21;;
71020;Laerm;58902;51.436;5.980;2023-09-07T00:02:18;40.04;36.16;42.44;;
71020;Laerm;58902;51.436;5.980;2023-09-07T00:02:29;36.95;33.90;42.35;;
71020;Laerm;58902;51.436;5.980;2023-09-07T00:02:39;38.48;35.20;42.00;;
71020;Laerm;58902;51.436;5.980;2023-09-07T00:02:50;41.51;38.06;45.59;;
71020;Laerm;58902;51.436;5.980;2023-09-07T00:03:00;62.84;43.88;78.30;;
71020;Laerm;58902;51.436;5.980;2023-09-07T00:03:11;75.54;72.21;80.10;;
71020;Laerm;58902;51.436;5.980;2023-09-07T00:03:21;74.99;72.36;78.67;;
71020;Laerm;58902;51.436;5.980;2023-09-07T00:03:33;67.25;34.76;78.43;;
71020;Laerm;58902;51.436;5.980;2023-09-07T00:03:43;33.38;30.18;37.13;;
71020;Laerm;58902;51.436;5.980;2023-09-07T00:03:54;31.16;29.40;34.08;;
71020;Laerm;58902;51.436;5.980;2023-09-07T00:04:04;30.22;28.58;32.02;;
71020;Laerm;58902;51.436;5.980;2023-09-07T00:04:16;29.92;28.36;31.36;;
71020;Laerm;58902;51.436;5.980;2023-09-07T00:04:26;29.87;28.53;31.56;;
71020;Laerm;58902;51.436;5.980;2023-09-07T00:04:37;29.70;28.22;31.32;;
71020;Laerm;58902;51.436;5.980;2023-09-07T00:04:47;29.78;28.14;31.62;;
71020;Laerm;58902;51.436;5.980;2023-09-07T00:04:57;29.64;28.12;31.07;;
71020;Laerm;58902;51.436;5.980;2023-09-07T00:05:08;29.52;28.43;31.30;;
71020;Laerm;58902;51.436;5.980;2023-09-07T00:05:18;29.64;27.98;38.00;;
71020;Laerm;58902;51.436;5.980;2023-09-07T00:05:29;29.37;28.17;30.71;;
71020;Laerm;58902;51.436;5.980;2023-09-07T00:05:39;29.33;28.27;30.54;;
71020;Laerm;58902;51.436;5.980;2023-09-07T00:05:49;29.35;28.30;30.42;;
71020;Laerm;58902;51.436;5.980;2023-09-07T00:06:00;30.12;28.46;32.11;;
71020;Laerm;58902;51.436;5.980;2023-09-07T00:06:10;31.57;29.27;34.02;;
71020;Laerm;58902;51.436;5.980;2023-09-07T00:06:20;32.13;29.47;37.32;;
71020;Laerm;58902;51.436;5.980;2023-09-07T00:06:31;31.79;29.63;34.21;;
71020;Laerm;58902;51.436;5.980;2023-09-07T00:06:41;31.70;29.46;34.22;;
71020;Laerm;58902;51.436;5.980;2023-09-07T00:06:53;31.30;28.63;34.96;;
71020;Laerm;58902;51.436;5.980;2023-09-07T00:07:04;30.38;28.35;32.12;;
71020;Laerm;58902;51.436;5.980;2023-09-07T00:07:17;30.05;28.73;31.60;;
71020;Laerm;58902;51.436;5.980;2023-09-07T00:07:27;29.71;28.41;32.41;;
71020;Laerm;58902;51.436;5.980;2023-09-07T00:07:38;29.50;28.40;31.92;;
71020;Laerm;58902;51.436;5.980;2023-09-07T00:07:48;29.29;28.20;30.26;;
71020;Laerm;58902;51.436;5.980;2023-09-07T00:07:59;29.28;28.31;30.38;;
71020;Laerm;58902;51.436;5.980;2023-09-07T00:08:09;29.26;28.35;33.85;;
71020;Laerm;58902;51.436;5.980;2023-09-07T00:08:19;29.15;27.93;30.45;;
71020;Laerm;58902;51.436;5.980;2023-09-07T00:08:30;29.12;28.11;30.29;;
71020;Laerm;58902;51.436;5.980;2023-09-07T00:08:40;29.10;28.26;30.13;;
71020;Laerm;58902;51.436;5.980;2023-09-07T00:08:51;29.09;27.88;30.58;;
71020;Laerm;58902;51.436;5.980;2023-09-07T00:09:03;29.14;27.77;35.79;;
71020;Laerm;58902;51.436;5.980;2023-09-07T00:09:16;29.06;27.91;30.04;;
71020;Laerm;58902;51.436;5.980;2023-09-07T00:09:28;29.12;27.99;36.76;;
71020;Laerm;58902;51.436;5.980;2023-09-07T00:09:38;29.00;27.95;30.05;;
71020;Laerm;58902;51.436;5.980;2023-09-07T00:09:49;29.03;28.10;30.44;;
71020;Laerm;58902;51.436;5.980;2023-09-07T00:09:59;28.96;27.83;30.09;;
71020;Laerm;58902;51.436;5.980;2023-09-07T00:10:09;29.07;28.19;30.10;;
71020;Laerm;58902;51.436;5.980;2023-09-07T00:10:20;29.13;28.09;30.55;;
71020;Laerm;58902;51.436;5.980;2023-09-07T00:10:31;29.07;28.11;30.22;;
71020;Laerm;58902;51.436;5.980;2023-09-07T00:10:42;29.08;27.80;30.07;;
71020;Laerm;58902;51.436;5.980;2023-09-07T00:10:52;29.29;27.95;37.53;;
71020;Laerm;58902;51.436;5.980;2023-09-07T00:11:03;28.95;27.95;30.08;;
71020;Laerm;58902;51.436;5.980;2023-09-07T00:11:14;29.00;27.88;32.18;;
71020;Laerm;58902;51.436;5.980;2023-09-07T00:11:24;29.12;27.86;31.93;;
71020;Laerm;58902;51.436;5.980;2023-09-07T00:11:35;29.01;27.98;30.20;;
71020;Laerm;58902;51.436;5.980;2023-09-07T00:11:45;29.06;28.05;30.29;;
71020;Laerm;58902;51.436;5.980;2023-09-07T00:11:55;29.07;28.05;30.82;;
71020;Laerm;58902;51.436;5.980;2023-09-07T00:12:06;29.07;27.93;30.35;;
71020;Laerm;58902;51.436;5.980;2023-09-07T00:12:16;29.07;27.74;30.13;;
71020;Laerm;58902;51.436;5.980;2023-09-07T00:12:27;29.04;27.96;30.08;;
71020;Laerm;58902;51.436;5.980;2023-09-07T00:12:37;29.01;28.07;29.98;;
71020;Laerm;58902;51.436;5.980;2023-09-07T00:12:49;29.12;28.00;30.26;;
71020;Laerm;58902;51.436;5.980;2023-09-07T00:12:59;29.17;28.05;31.71;;
71020;Laerm;58902;51.436;5.980;2023-09-07T00:13:10;29.13;28.24;30.23;;
71020;Laerm;58902;51.436;5.980;2023-09-07T00:13:20;29.09;27.97;30.30;;
71020;Laerm;58902;51.436;5.980;2023-09-07T00:13:31;29.14;27.89;30.29;;
71020;Laerm;58902;51.436;5.980;2023-09-07T00:13:41;29.32;28.06;30.26;;
71020;Laerm;58902;51.436;5.980;2023-09-07T00:13:52;29.44;28.27;31.41;;
71020;Laerm;58902;51.436;5.980;2023-09-07T00:14:02;29.69;28.28;34.50;;
71020;Laerm;58902;51.436;5.980;2023-09-07T00:14:12;29.52;28.15;32.67;;
71020;Laerm;58902;51.436;5.980;2023-09-07T00:14:23;29.65;28.28;32.49;;
71020;Laerm;58902;51.436;5.980;2023-09-07T00:14:33;29.80;28.46;32.84;;
71020;Laerm;58902;51.436;5.980;2023-09-07T00:14:43;29.98;28.04;33.53;;
71020;Laerm;58902;51.436;5.980;2023-09-07T00:14:55;30.18;28.61;35.39;;
71020;Laerm;58902;51.436;5.980;2023-09-07T00:15:05;31.12;29.07;35.23;;
71020;Laerm;58902;51.436;5.980;2023-09-07T00:15:16;31.44;29.47;34.03;;
71020;Laerm;58902;51.436;5.980;2023-09-07T00:15:29;31.82;29.83;33.92;;
71020;Laerm;58902;51.436;5.980;2023-09-07T00:15:40;37.39;30.69;42.03;;
71020;Laerm;58902;51.436;5.980;2023-09-07T00:15:50;39.16;33.69;44.31;;
71020;Laerm;58902;51.436;5.980;2023-09-07T00:16:02;36.83;33.47;40.28;;
71020;Laerm;58902;51.436;5.980;2023-09-07T00:16:12;40.40;37.01;45.01;;
71020;Laerm;58902;51.436;5.980;2023-09-07T00:16:23;49.98;43.10;60.05;;
71020;Laerm;58902;51.436;5.980;2023-09-07T00:16:33;74.66;59.63;78.52;;
71020;Laerm;58902;51.436;5.980;2023-09-07T00:16:45;75.86;72.51;78.88;;
71020;Laerm;58902;51.436;5.980;2023-09-07T00:16:55;60.60;36.96;74.69;;
71020;Laerm;58902;51.436;5.980;2023-09-07T00:17:07;34.60;30.86;38.76;;
71020;Laerm;58902;51.436;5.980;2023-09-07T00:17:17;30.62;28.63;33.62;;
71020;Laerm;58902;51.436;5.980;2023-09-07T00:17:28;29.47;28.37;30.51;;
71020;Laerm;58902;51.436;5.980;2023-09-07T00:17:38;29.41;28.23;32.62;;
71020;Laerm;58902;51.436;5.980;2023-09-07T00:17:48;29.30;28.15;30.73;;
71020;Laerm;58902;51.436;5.980;2023-09-07T00:18:01;29.31;28.09;30.62;;
71020;Laerm;58902;51.436;5.980;2023-09-07T00:18:11;29.76;27.99;32.10;;
71020;Laerm;58902;51.436;5.980;2023-09-07T00:18:22;29.42;28.21;30.70;;
71020;Laerm;58902;51.436;5.980;2023-09-07T00:18:32;29.37;28.25;35.45;;
71020;Laerm;58902;51.436;5.980;2023-09-07T00:18:43;29.29;28.30;31.36;;
71020;Laerm;58902;51.436;5.980;2023-09-07T00:18:53;29.15;27.97;30.66;;
71020;Laerm;58902;51.436;5.980;2023-09-07T00:19:04;29.00;28.13;30.06;;
71020;Laerm;58902;51.436;5.980;2023-09-07T00:19:14;29.07;27.82;30.67;;
71020;Laerm;58902;51.436;5.980;2023-09-07T00:19:25;29.09;28.20;31.71;;
71020;Laerm;58902;51.436;5.980;2023-09-07T00:19:35;29.15;28.04;30.55;;
71020;Laerm;58902;51.436;5.980;2023-09-07T00:19:47;29.07;28.05;30.21;;
71020;Laerm;58902;51.436;5.980;2023-09-07T00:19:59;29.02;28.04;30.39;;
71020;Laerm;58902;51.436;5.980;2023-09-07T00:20:09;39.98;35.74;44.10;;
71020;Laerm;58902;51.436;5.980;2023-09-07T00:20:25;35.19;29.25;43.73;;
71020;Laerm;58902;51.436;5.980;2023-09-07T00:20:36;32.05;29.26;34.06;;
71020;Laerm;58902;51.436;5.980;2023-09-07T00:20:46;33.65;29.70;37.90;;
71020;Laerm;58902;51.436;5.980;2023-09-07T00:20:58;69.02;36.55;77.01;;
71020;Laerm;58902;51.436;5.980;2023-09-07T00:21:08;69.56;66.34;72.36;;
71020;Laerm;58902;51.436;5.980;2023-09-07T00:21:19;67.24;48.18;73.03;;
71020;Laerm;58902;51.436;5.980;2023-09-07T00:21:29;46.06;41.35;50.20;;
71020;Laerm;58902;51.436;5.980;2023-09-07T00:21:39;40.67;37.59;44.01;;
71020;Laerm;58902;51.436;5.980;2023-09-07T00:21:50;38.13;34.37;42.41;;
71020;Laerm;58902;51.436;5.980;2023-09-07T00:22:02;35.91;33.85;37.98;;
71020;Laerm;58902;51.436;5.980;2023-09-07T00:22:12;34.57;32.16;37.26;;
71020;Laerm;58902;51.436;5.980;2023-09-07T00:22:23;32.99;30.51;35.36;;
71020;Laerm;58902;51.436;5.980;2023-09-07T00:22:35;31.18;29.43;33.28;;
71020;Laerm;58902;51.436;5.980;2023-09-07T00:22:46;30.58;29.26;32.90;;
71020;Laerm;58902;51.436;5.980;2023-09-07T00:22:56;32.32;29.68;45.48;;
71020;Laerm;58902;51.436;5.980;2023-09-07T00:23:06;31.23;29.06;34.40;;
71020;Laerm;58902;51.436;5.980;2023-09-07T00:23:17;31.07;29.38;33.92;;
71020;Laerm;58902;51.436;5.980;2023-09-07T00:23:28;37.23;29.95;42.58;;
71020;Laerm;58902;51.436;5.980;2023-09-07T00:23:39;37.62;31.98;41.03;;
71020;Laerm;58902;51.436;5.980;2023-09-07T00:23:50;35.83;32.06;39.46;;
71020;Laerm;58902;51.436;5.980;2023-09-07T00:24:00;37.44;34.77;41.13;;
71020;Laerm;58902;51.436;5.980;2023-09-07T00:24:15;43.44;36.36;52.35;;
71020;Laerm;58902;51.436;5.980;2023-09-07T00:24:26;71.70;51.34;80.14;;
71020;Laerm;58902;51.436;5.980;2023-09-07T00:24:36;70.56;66.24;73.30;;
71020;Laerm;58902;51.436;5.980;2023-09-07T00:24:46;65.14;35.75;74.94;;
71020;Laerm;58902;51.436;5.980;2023-09-07T00:24:57;33.78;30.10;37.33;;
71020;Laerm;58902;51.436;5.980;2023-09-07T00:25:07;30.93;29.46;33.12;;
71020;Laerm;58902;51.436;5.980;2023-09-07T00:25:18;29.66;28.23;32.95;;
71020;Laerm;58902;51.436;5.980;2023-09-07T00:25:30;29.53;28.38;40.66;;
71020;Laerm;58902;51.436;5.980;2023-09-07T00:25:40;29.37;28.17;30.72;;
71020;Laerm;58902;51.436;5.980;2023-09-07T00:25:51;29.47;28.13;31.26;;
71020;Laerm;58902;51.436;5.980;2023-09-07T00:26:01;30.18;28.54;31.91;;
71020;Laerm;58902;51.436;5.980;2023-09-07T00:26:11;29.93;28.25;32.26;;
71020;Laerm;58902;51.436;5.980;2023-09-07T00:26:22;29.34;28.12;30.44;;
71020;Laerm;58902;51.436;5.980;2023-09-07T00:26:33;29.28;28.46;30.35;;
71020;Laerm;58902;51.436;5.980;2023-09-07T00:26:44;29.74;28.52;31.65;;
71020;Laerm;58902;51.436;5.980;2023-09-07T00:26:55;29.40;28.06;33.26;;
71020;Laerm;58902;51.436;5.980;2023-09-07T00:27:05;29.33;28.15;34.68;;
71020;Laerm;58902;51.436;5.980;2023-09-07T00:27:17;30.67;28.62;34.09;;
71020;Laerm;58902;51.436;5.980;2023-09-07T00:27:28;33.58;29.00;41.18;;
71020;Laerm;58902;51.436;5.980;2023-09-07T00:27:39;33.12;29.20;37.16;;
71020;Laerm;58902;51.436;5.980;2023-09-07T00:27:49;34.59;28.97;42.88;;
71020;Laerm;58902;51.436;5.980;2023-09-07T00:27:59;30.75;28.82;33.37;;
71020;Laerm;58902;51.436;5.980;2023-09-07T00:28:10;32.06;29.03;37.25;;
71020;Laerm;58902;51.436;5.980;2023-09-07T00:28:20;31.46;28.88;35.15;;
71020;Laerm;58902;51.436;5.980;2023-09-07T00:28:30;29.37;28.34;30.43;;
71020;Laerm;58902;51.436;5.980;2023-09-07T00:28:41;29.47;27.89;33.77;;
71020;Laerm;58902;51.436;5.980;2023-09-07T00:28:51;29.24;28.26;30.69;;
71020;Laerm;58902;51.436;5.980;2023-09-07T00:29:01;29.41;28.08;35.58;;
71020;Laerm;58902;51.436;5.980;2023-09-07T00:29:12;29.22;28.13;30.28;;
71020;Laerm;58902;51.436;5.980;2023-09-07T00:29:22;29.39;28.03;34.97;;
71020;Laerm;58902;51.436;5.980;2023-09-07T00:29:34;29.23;27.90;30.69;;
71020;Laerm;58902;51.436;5.980;2023-09-07T00:29:44;29.28;28.14;30.56;;
71020;Laerm;58902;51.436;5.980;2023-09-07T00:29:55;29.36;28.02;31.24;;
71020;Laerm;58902;51.436;5.980;2023-09-07T00:30:05;29.52;28.43;32.53;;
71020;Laerm;58902;51.436;5.980;2023-09-07T00:30:16;29.91;28.70;31.68;;
71020;Laerm;58902;51.436;5.980;2023-09-07T00:30:27;29.76;28.51;31.69;;
71020;Laerm;58902;51.436;5.980;2023-09-07T00:30:37;29.43;28.16;31.35;;
71020;Laerm;58902;51.436;5.980;2023-09-07T00:30:48;29.26;27.96;30.77;;
71020;Laerm;58902;51.436;5.980;2023-09-07T00:30:58;29.26;28.03;33.05;;
71020;Laerm;58902;51.436;5.980;2023-09-07T00:31:08;37.51;28.21;52.77;;
71020;Laerm;58902;51.436;5.980;2023-09-07T00:31:19;29.37;28.26;30.65;;
71020;Laerm;58902;51.436;5.980;2023-09-07T00:31:29;29.39;28.09;36.70;;
71020;Laerm;58902;51.436;5.980;2023-09-07T00:31:40;29.22;28.03;30.37;;
71020;Laerm;58902;51.436;5.980;2023-09-07T00:31:51;29.24;28.12;31.61;;
71020;Laerm;58902;51.436;5.980;2023-09-07T00:32:02;29.17;28.14;30.91;;
71020;Laerm;58902;51.436;5.980;2023-09-07T00:32:12;29.20;28.18;30.22;;
71020;Laerm;58902;51.436;5.980;2023-09-07T00:32:22;29.19;28.03;30.50;;
71020;Laerm;58902;51.436;5.980;2023-09-07T00:32:35;29.18;28.19;30.49;;
71020;Laerm;58902;51.436;5.980;2023-09-07T00:32:45;29.17;28.29;34.05;;
71020;Laerm;58902;51.436;5.980;2023-09-07T00:32:56;29.11;28.04;30.79;;
71020;Laerm;58902;51.436;5.980;2023-09-07T00:33:06;29.32;28.12;34.09;;
71020;Laerm;58902;51.436;5.980;2023-09-07T00:33:17;29.21;28.04;30.57;;
71020;Laerm;58902;51.436;5.980;2023-09-07T00:33:27;29.17;28.26;30.38;;
71020;Laerm;58902;51.436;5.980;2023-09-07T00:33:37;29.25;28.16;31.88;;
71020;Laerm;58902;51.436;5.980;2023-09-07T00:33:48;29.22;28.27;30.40;;
71020;Laerm;58902;51.436;5.980;2023-09-07T00:33:58;29.29;28.05;30.57;;
71020;Laerm;58902;51.436;5.980;2023-09-07T00:34:08;29.23;28.10;30.33;;
71020;Laerm;58902;51.436;5.980;2023-09-07T00:34:19;29.14;27.96;30.12;;
71020;Laerm;58902;51.436;5.980;2023-09-07T00:34:29;29.16;27.94;30.17;;
71020;Laerm;58902;51.436;5.980;2023-09-07T00:34:40;29.15;28.32;30.30;;
71020;Laerm;58902;51.436;5.980;2023-09-07T00:34:50;29.13;28.21;30.11;;
71020;Laerm;58902;51.436;5.980;2023-09-07T00:35:00;29.12;28.12;30.37;;
71020;Laerm;58902;51.436;5.980;2023-09-07T00:35:11;32.95;28.15;41.34;;
71020;Laerm;58902;51.436;5.980;2023-09-07T00:35:21;38.86;35.65;41.84;;
71020;Laerm;58902;51.436;5.980;2023-09-07T00:35:31;33.47;29.73;40.65;;
71020;Laerm;58902;51.436;5.980;2023-09-07T00:35:42;32.71;29.36;34.83;;
71020;Laerm;58902;51.436;5.980;2023-09-07T00:35:52;33.38;29.95;35.85;;
71020;Laerm;58902;51.436;5.980;2023-09-07T00:36:03;68.78;31.73;80.09;;
71020;Laerm;58902;51.436;5.980;2023-09-07T00:36:13;67.30;62.91;71.47;;
71020;Laerm;58902;51.436;5.980;2023-09-07T00:36:23;67.57;52.85;73.69;;
71020;Laerm;58902;51.436;5.980;2023-09-07T00:36:34;48.81;42.47;54.31;;
71020;Laerm;58902;51.436;5.980;2023-09-07T00:36:44;44.14;40.21;47.68;;
71020;Laerm;58902;51.436;5.980;2023-09-07T00:36:54;40.08;36.25;46.35;;
71020;Laerm;58902;51.436;5.980;2023-09-07T00:37:05;36.49;33.03;39.24;;
71020;Laerm;58902;51.436;5.980;2023-09-07T00:37:15;34.03;31.71;36.23;;
71020;Laerm;58902;51.436;5.980;2023-09-07T00:37:25;32.30;30.60;33.96;;
71020;Laerm;58902;51.436;5.980;2023-09-07T00:37:36;31.34;29.46;32.98;;
71020;Laerm;58902;51.436;5.980;2023-09-07T00:37:47;30.52;28.99;32.03;;
71020;Laerm;58902;51.436;5.980;2023-09-07T00:37:57;29.73;28.51;31.23;;
71020;Laerm;58902;51.436;5.980;2023-09-07T00:38:07;29.49;28.48;30.69;;
71020;Laerm;58902;51.436;5.980;2023-09-07T00:38:18;29.36;28.28;31.82;;
71020;Laerm;58902;51.436;5.980;2023-09-07T00:38:28;29.32;28.14;30.63;;
71020;Laerm;58902;51.436;5.980;2023-09-07T00:38:39;29.20;27.98;30.13;;
71020;Laerm;58902;51.436;5.980;2023-09-07T00:38:50;29.19;28.18;30.22;;
71020;Laerm;58902;51.436;5.980;2023-09-07T00:39:00;29.20;28.01;30.75;;
71020;Laerm;58902;51.436;5.980;2023-09-07T00:39:11;29.29;28.06;32.27;;
71020;Laerm;58902;51.436;5.980;2023-09-07T00:39:21;29.28;28.28;30.16;;
71020;Laerm;58902;51.436;5.980;2023-09-07T00:39:32;29.36;28.38;30.61;;
71020;Laerm;58902;51.436;5.980;2023-09-07T00:39:42;29.40;28.31;34.49;;
71020;Laerm;58902;51.436;5.980;2023-09-07T00:39:52;29.28;28.22;31.60;;
71020;Laerm;58902;51.436;5.980;2023-09-07T00:40:03;29.32;28.17;30.96;;
71020;Laerm;58902;51.436;5.980;2023-09-07T00:40:17;29.37;28.18;30.96;;
71020;Laerm;58902;51.436;5.980;2023-09-07T00:40:27;29.27;28.16;30.91;;
71020;Laerm;58902;51.436;5.980;2023-09-07T00:40:37;29.34;28.22;34.35;;
71020;Laerm;58902;51.436;5.980;2023-09-07T00:40:48;29.22;27.99;30.26;;
71020;Laerm;58902;51.436;5.980;2023-09-07T00:40:58;30.28;27.87;45.12;;
71020;Laerm;58902;51.436;5.980;2023-09-07T00:41:08;29.80;28.36;31.18;;
71020;Laerm;58902;51.436;5.980;2023-09-07T00:41:19;29.20;28.22;30.45;;
71020;Laerm;58902;51.436;5.980;2023-09-07T00:41:29;29.72;28.54;31.54;;
71020;Laerm;58902;51.436;5.980;2023-09-07T00:41:39;30.26;28.42;32.74;;
71020;Laerm;58902;51.436;5.980;2023-09-07T00:41:50;31.39;28.73;42.05;;
71020;Laerm;58902;51.436;5.980;2023-09-07T00:42:00;30.63;28.55;35.23;;
71020;Laerm;58902;51.436;5.980;2023-09-07T00:42:11;31.32;28.90;33.92;;
71020;Laerm;58902;51.436;5.980;2023-09-07T00:42:21;29.34;28.08;30.71;;
71020;Laerm;58902;51.436;5.980;2023-09-07T00:42:31;29.63;28.45;31.03;;
71020;Laerm;58902;51.436;5.980;2023-09-07T00:42:42;30.95;29.05;33.57;;
71020;Laerm;58902;51.436;5.980;2023-09-07T00:42:53;36.31;31.79;39.35;;
71020;Laerm;58902;51.436;5.980;2023-09-07T00:43:03;30.68;29.11;33.09;;
71020;Laerm;58902;51.436;5.980;2023-09-07T00:43:14;30.05;28.14;32.08;;
71020;Laerm;58902;51.436;5.980;2023-09-07T00:43:25;29.18;28.03;31.05;;
71020;Laerm;58902;51.436;5.980;2023-09-07T00:43:35;29.18;28.23;30.18;;
71020;Laerm;58902;51.436;5.980;2023-09-07T00:43:46;29.23;27.67;30.53;;
71020;Laerm;58902;51.436;5.980;2023-09-07T00:43:56;29.12;28.23;30.37;;
71020;Laerm;58902;51.436;5.980;2023-09-07T00:44:06;29.23;28.30;32.79;;
71020;Laerm;58902;51.436;5.980;2023-09-07T00:44:17;29.18;28.00;34.34;;
71020;Laerm;58902;51.436;5.980;2023-09-07T00:44:27;29.25;28.10;31.69;;
71020;Laerm;58902;51.436;5.980;2023-09-07T00:44:38;29.27;28.24;30.98;;
71020;Laerm;58902;51.436;5.980;2023-09-07T00:44:48;29.76;28.21;40.93;;
71020;Laerm;58902;51.436;5.980;2023-09-07T00:44:58;29.52;28.46;30.89;;
71020;Laerm;58902;51.436;5.980;2023-09-07T00:45:09;29.34;28.13;30.45;;
71020;Laerm;58902;51.436;5.980;2023-09-07T00:45:19;29.26;28.26;30.28;;
71020;Laerm;58902;51.436;5.980;2023-09-07T00:45:30;36.68;28.13;40.46;;
71020;Laerm;58902;51.436;5.980;2023-09-07T00:45:40;36.20;30.72;40.70;;
71020;Laerm;58902;51.436;5.980;2023-09-07T00:45:51;33.11;30.33;35.02;;
71020;Laerm;58902;51.436;5.980;2023-09-07T00:46:01;33.59;30.46;35.52;;
71020;Laerm;58902;51.436;5.980;2023-09-07T00:46:12;34.55;31.34;37.59;;
71020;Laerm;58902;51.436;5.980;2023-09-07T00:46:22;68.15;34.75;76.03;;
71020;Laerm;58902;51.436;5.980;2023-09-07T00:46:33;69.81;66.36;72.81;;
71020;Laerm;58902;51.436;5.980;2023-09-07T00:46:43;67.76;49.24;73.02;;
71020;Laerm;58902;51.436;5.980;2023-09-07T00:46:57;46.27;41.04;51.42;;
71020;Laerm;58902;51.436;5.980;2023-09-07T00:47:07;42.41;38.78;46.36;;
71020;Laerm;58902;51.436;5.980;2023-09-07T00:47:18;38.59;35.41;43.43;;
71020;Laerm;58902;51.436;5.980;2023-09-07T00:47:28;35.78;32.21;39.40;;
71020;Laerm;58902;51.436;5.980;2023-09-07T00:47:39;32.13;30.21;33.97;;
71020;Laerm;58902;51.436;5.980;2023-09-07T00:47:50;31.02;29.35;32.44;;
71020;Laerm;58902;51.436;5.980;2023-09-07T00:48:00;30.53;29.12;31.73;;
71020;Laerm;58902;51.436;5.980;2023-09-07T00:48:11;30.11;28.64;31.18;;
71020;Laerm;58902;51.436;5.980;2023-09-07T00:48:22;30.06;28.88;32.08;;
71020;Laerm;58902;51.436;5.980;2023-09-07T00:48:34;29.88;28.57;37.84;;
71020;Laerm;58902;51.436;5.980;2023-09-07T00:48:47;29.67;28.45;33.50;;
71020;Laerm;58902;51.436;5.980;2023-09-07T00:48:58;31.01;28.39;37.85;;
71020;Laerm;58902;51.436;5.980;2023-09-07T00:49:08;35.16;29.65;39.69;;
71020;Laerm;58902;51.436;5.980;2023-09-07T00:49:19;30.24;28.92;31.99;;
71020;Laerm;58902;51.436;5.980;2023-09-07T00:49:29;29.58;28.26;31.16;;
71020;Laerm;58902;51.436;5.980;2023-09-07T00:49:40;29.69;28.22;31.02;;
71020;Laerm;58902;51.436;5.980;2023-09-07T00:49:50;29.65;28.44;31.01;;
71020;Laerm;58902;51.436;5.980;2023-09-07T00:50:01;29.71;28.23;32.85;;
71020;Laerm;58902;51.436;5.980;2023-09-07T00:50:11;31.33;28.99;41.72;;
71020;Laerm;58902;51.436;5.980;2023-09-07T00:50:24;30.64;28.62;41.00;;
71020;Laerm;58902;51.436;5.980;2023-09-07T00:50:34;29.54;28.34;30.69;;
71020;Laerm;58902;51.436;5.980;2023-09-07T00:50:45;29.45;28.37;30.92;;
71020;Laerm;58902;51.436;5.980;2023-09-07T00:50:56;29.23;28.04;31.31;;
71020;Laerm;58902;51.436;5.980;2023-09-07T00:51:06;35.83;28.04;40.04;;
71020;Laerm;58902;51.436;5.980;2023-09-07T00:51:17;35.99;29.60;41.22;;
71020;Laerm;58902;51.436;5.980;2023-09-07T00:51:27;33.24;29.39;35.26;;
71020;Laerm;58902;51.436;5.980;2023-09-07T00:51:38;33.88;30.59;36.23;;
71020;Laerm;58902;51.436;5.980;2023-09-07T00:51:49;42.48;31.70;54.65;;
71020;Laerm;58902;51.436;5.980;2023-09-07T00:52:03;72.97;53.55;79.48;;
71020;Laerm;58902;51.436;5.980;2023-09-07T00:52:13;62.74;46.98;72.82;;
71020;Laerm;58902;51.436;5.980;2023-09-07T00:52:24;46.38;42.09;49.73;;
71020;Laerm;58902;51.436;5.980;2023-09-07T00:52:34;43.63;39.86;47.06;;
71020;Laerm;58902;51.436;5.980;2023-09-07T00:52:46;40.13;36.33;44.22;;
71020;Laerm;58902;51.436;5.980;2023-09-07T00:52:57;38.23;32.72;43.39;;
71020;Laerm;58902;51.436;5.980;2023-09-07T00:53:12;33.37;30.24;35.89;;
71020;Laerm;58902;51.436;5.980;2023-09-07T00:53:23;31.88;30.10;35.61;;
71020;Laerm;58902;51.436;5.980;2023-09-07T00:53:35;30.33;28.84;32.29;;
71020;Laerm;58902;51.436;5.980;2023-09-07T00:53:45;29.85;28.74;31.10;;
71020;Laerm;58902;51.436;5.980;2023-09-07T00:53:56;29.73;28.52;31.15;;
71020;Laerm;58902;51.436;5.980;2023-09-07T00:54:07;29.57;28.35;31.49;;
71020;Laerm;58902;51.436;5.980;2023-09-07T00:54:18;29.41;28.23;30.81;;
71020;Laerm;58902;51.436;5.980;2023-09-07T00:54:28;29.33;28.24;32.35;;
71020;Laerm;58902;51.436;5.980;2023-09-07T00:54:40;29.53;28.60;30.82;;
71020;Laerm;58902;51.436;5.980;2023-09-07T00:54:52;29.47;28.48;30.49;;
71020;Laerm;58902;51.436;5.980;2023-09-07T00:55:02;29.81;28.61;31.35;;
71020;Laerm;58902;51.436;5.980;2023-09-07T00:55:14;29.73;28.36;31.32;;
71020;Laerm;58902;51.436;5.980;2023-09-07T00:55:25;29.62;28.33;31.70;;
71020;Laerm;58902;51.436;5.980;2023-09-07T00:55:36;29.85;28.54;31.40;;
71020;Laerm;58902;51.436;5.980;2023-09-07T00:55:47;29.48;28.30;30.66;;
71020;Laerm;58902;51.436;5.980;2023-09-07T00:55:58;30.34;28.96;32.91;;
71020;Laerm;58902;51.436;5.980;2023-09-07T00:56:08;30.60;28.98;32.87;;
71020;Laerm;58902;51.436;5.980;2023-09-07T00:56:19;34.32;30.10;39.82;;
71020;Laerm;58902;51.436;5.980;2023-09-07T00:56:29;31.10;28.88;35.48;;
71020;Laerm;58902;51.436;5.980;2023-09-07T00:56:40;31.43;28.32;39.18;;
71020;Laerm;58902;51.436;5.980;2023-09-07T00:56:51;29.75;28.23;31.08;;
71020;Laerm;58902;51.436;5.980;2023-09-07T00:57:01;33.78;29.48;39.15;;
71020;Laerm;58902;51.436;5.980;2023-09-07T00:57:12;36.60;31.49;40.48;;
71020;Laerm;58902;51.436;5.980;2023-09-07T00:57:22;31.36;29.25;34.04;;
71020;Laerm;58902;51.436;5.980;2023-09-07T00:57:33;30.43;29.19;32.88;;
71020;Laerm;58902;51.436;5.980;2023-09-07T00:57:43;30.94;29.24;32.87;;
71020;Laerm;58902;51.436;5.980;2023-09-07T00:57:54;30.80;29.05;33.13;;
71020;Laerm;58902;51.436;5.980;2023-09-07T00:58:05;30.80;28.99;32.73;;
71020;Laerm;58902;51.436;5.980;2023-09-07T00:58:15;30.67;29.12;32.79;;
71020;Laerm;58902;51.436;5.980;2023-09-07T00:58:26;30.13;28.71;31.67;;
71020;Laerm;58902;51.436;5.980;2023-09-07T00:58:36;29.99;28.43;31.75;;
71020;Laerm;58902;51.436;5.980;2023-09-07T00:58:47;29.95;28.50;34.03;;
71020;Laerm;58902;51.436;5.980;2023-09-07T00:58:58;29.77;28.56;33.84;;
71020;Laerm;58902;51.436;5.980;2023-09-07T00:59:11;29.51;28.15;30.91;;
71020;Laerm;58902;51.436;5.980;2023-09-07T00:59:21;29.30;28.13;30.53;;
71020;Laerm;58902;51.436;5.980;2023-09-07T00:59:32;29.20;28.16;30.44;;
71020;Laerm;58902;51.436;5.980;2023-09-07T00:59:43;29.15;27.95;30.20;;
71020;Laerm;58902;51.436;5.980;2023-09-07T00:59:53;29.20;27.69;33.17;;
71020;Laerm;58902;51.436;5.980;2023-09-07T01:00:04;37.04;27.93;54.10;;